Nearby METAR Reports

 

LERS - Reus, Tarragona, España
Actualización: 27/02/2021 13:00
Few Clouds
Few Clouds
 Viento del varies
Viento: varies 9 km/h
Temperatura: 17°C
Rocío: 9°C
Humedad: 59%
Barómetro: 1025 hPa
Clouds: Few Clouds
Visibility: 10 km
Cloud details: Few Clouds 914 m
2021/02/27 12:00 LERS 271200Z VRB05KT 9999 FEW030 17/09 Q1025
LEMD - Barajas, Madrid, España
Actualización: 27/02/2021 13:00
Despejado
Despejado
 Viento del O
Viento: O 6 km/h
Temperatura: 15°C
Rocío: 5°C
Humedad: 51%
Barómetro: 1025 hPa
Resumen: Despejado
Visibility: greater than 10 km
2021/02/27 12:00 LEMD 271200Z 26003KT 160V330 CAVOK 15/05 Q1025 NOSIG
LEVC - Manises, Valencia, España
Actualización: 27/02/2021 13:00
Few Clouds
Few Clouds
 Viento del ESE
Viento: ESE 9 km/h
Temperatura: 17°C
Rocío: 10°C
Humedad: 64%
Barómetro: 1026 hPa
Clouds: Few Clouds
Visibility: 10 km
Cloud details: Few Clouds 762 m
2021/02/27 12:00 LEVC 271200Z 12005KT 080V150 9999 FEW025 17/10 Q1026 NOSIG
 
LEBL - El Prat, Barcelona, España
Actualización: 27/02/2021 13:00
Despejado
Despejado
 Viento del SSO
Viento: SSO 19 km/h
Temperatura: 14°C
Rocío: 10°C
Humedad: 77%
Barómetro: 1025 hPa
Resumen: Despejado
Visibility: greater than 10 km
2021/02/27 12:00 LEBL 271200Z 21010KT CAVOK 14/10 Q1025 NOSIG
LEAL - Altet, Alicante, España
Actualización: 27/02/2021 13:00
Parcialmente nuboso
Parcialmente nuboso
 Viento del ENE
Viento: ENE 13 km/h
Temperatura: 16°C
Rocío: 6°C
Humedad: 52%
Barómetro: 1026 hPa
Clouds: Parcialmente nuboso
Visibility: 10 km
Cloud details: Few Clouds 671 m
Parcialmente nuboso 1067 m
2021/02/27 12:00 LEAL 271200Z 07007KT 040V140 9999 FEW022 SCT035 16/06 Q1026 NOSIG
LEZG - Zaragoza, Zaragoza, España
Actualización: 27/02/2021 13:00
Muy nuboso
Muy nuboso
 Viento del ONO
Viento: ONO 24 km/h
Temperatura: 15°C
Rocío: 7°C
Humedad: 59%
Barómetro: 1026 hPa
Clouds: Muy nuboso
Visibility: 10 km
Cloud details: Muy nuboso 914 m
2021/02/27 12:00 LEZG 271200Z 30013KT 280V340 9999 BKN030 15/07 Q1026
 
LFPG - Paris, Francia, Francia
Actualización: 27/02/2021 13:00
Few Clouds
Few Clouds
 Viento del NNE
Viento: NNE 24 km/h
Temperatura: 9°C
Wind Chill: 6°C
Rocío: 2°C
Humedad: 62%
Barómetro: 1038 hPa
Clouds: Few Clouds
Visibility: 10 km
Cloud details: Few Clouds 853 m
2021/02/27 12:00 LFPG 271200Z 03013KT 9999 FEW028 09/02 Q1038 NOSIG
LPPT - Lisboa, Portugal
Actualización: 27/02/2021 13:00
Despejado
Despejado
 Viento del NE
Viento: NE 19 km/h
Temperatura: 16°C
Rocío: 10°C
Humedad: 68%
Barómetro: 1023 hPa
Resumen: Despejado
Visibility: greater than 10 km
2021/02/27 12:00 LPPT 271200Z 05010KT CAVOK 16/10 Q1023
EDDT - Berlin, Alemania
Actualización: 09/11/2020 07:50
NOT Current
Mist, Cubierto
Mist, Cubierto
 Viento del E
Viento: E 11 km/h
Temperatura: 6°C
Wind Chill: 4°C
Rocío: 5°C
Humedad: 93%
Barómetro: 1027 hPa
Resumen: Mist
Clouds: Cubierto
Visibility: 3 km
Cloud details: Cubierto 91 m
2020/11/09 06:50 EDDT 090650Z 09006KT 050V120 3000 BR OVC003 06/05 Q1027
 
KHAF - Half Moon Bay, California, USA
Actualización: 27/02/2021 13:15
Haze, Few clouds
Haze, Few clouds
 Viento del N
Viento: N 15 km/h, Racha: 26 km/h
Temperatura: 8°C
Wind Chill: 5°C
Rocío: 3°C
Humedad: 71%
Barómetro: 1020.7 hPa
Resumen: Haze
Clouds: Few Clouds
Visibility: 10 km
Cloud details: Few Clouds 488 m
2021/02/27 12:15 KHAF 271215Z AUTO 35008G14KT 6SM HZ FEW016 08/03 A3014 RMK AO2
KHWD - Hayward, California, USA
Actualización: 27/02/2021 12:54
Despejado
Despejado
 Viento del calm
Viento: Calma
Temperatura: 6°C
Rocío: 2°C
Humedad: 76%
Barómetro: 1020.3 hPa
Clouds: Despejado
Visibility: 16 km
2021/02/27 11:54 KHWD 271154Z 00000KT 10SM CLR 06/02 A3013 RMK AO2 SLP212 T00560017 10100 20056 50000
KLVK - Livermore, California,
Actualización: 27/02/2021 12:53
Despejado
Despejado
 Viento del calm
Viento: Calma
Temperatura: 4°C
Rocío: 2°C
Humedad: 87%
Barómetro: 1020 hPa
Clouds: Despejado
Visibility: 16 km
2021/02/27 11:53 KLVK 271153Z AUTO 00000KT 10SM CLR 04/02 A3012 RMK AO2 SLP200 T00440022 10089 20028 50001